LFRN/RNS METAR and TAF weather

Enter ICAO airport designator
Station Type Date Time Source
LFRN METAR 2020/01/20 18:30 UTC NOAA

LFRN 201830Z AUTO 02006KT CAVOK 04/01 Q1043 NOSIG


Station Type Date Time Source
LFRN Decoded METAR 2020/01/20 18:30 UTC NOAA

Rennes, France (LFRN) 48-04N 001-44W 37M
Jan 20, 2020 - 01:30 PM EST / 2020.01.20 1830 UTC
Wind: from the NNE (020 degrees) at 7 MPH (6 KT):0
Visibility: greater than 7 mile(s):0
Temperature: 39 F (4 C)
Dew Point: 33 F (1 C)
Relative Humidity: 80%
Pressure (altimeter): 30.80 in. Hg (1043 hPa)
ob: LFRN 201830Z AUTO 02006KT CAVOK 04/01 Q1043 NOSIG
cycle: 18

Station Type Date Time Source
LFRN TAF 2020/01/20 18:21 UTC NOAA

TAF LFRN 201700Z 2018/2118 02008KT CAVOK
TEMPO 2100/2108 4000 BR PROB30
TEMPO 2108/2111 BKN008

Example: see airport list